createdAt,value
2022-08-28T00:00:52.793Z,99.9
2022-08-28T00:03:00.004Z,99.9
2022-08-28T00:07:07.674Z,99.9
2022-08-28T00:09:11.548Z,99.9
2022-08-28T00:11:15.403Z,99.9
2022-08-28T00:13:19.253Z,99.9
2022-08-28T00:15:23.101Z,99.9
2022-08-28T00:21:37.966Z,99.9
2022-08-28T00:27:49.529Z,99.9
2022-08-28T00:29:53.401Z,99.9
2022-08-28T00:32:00.521Z,99.9
2022-08-28T00:34:04.384Z,99.9
2022-08-28T00:36:08.221Z,99.9
2022-08-28T00:37:11.787Z,99.9
2022-08-28T00:39:15.667Z,99.9
2022-08-28T00:41:24.915Z,99.9
2022-08-28T00:45:35.984Z,99.9
2022-08-28T00:47:35.982Z,99.9
2022-08-28T00:49:39.862Z,99.9
2022-08-28T00:53:47.613Z,99.9
2022-08-28T00:57:55.297Z,99.9
2022-08-28T01:00:02.445Z,99.9
2022-08-28T01:02:06.490Z,99.9
2022-08-28T01:04:10.150Z,99.9
2022-08-28T01:06:14.018Z,99.9
2022-08-28T01:08:18.606Z,99.9
2022-08-28T01:10:21.748Z,99.9
2022-08-28T01:12:26.182Z,99.9
2022-08-28T01:14:32.753Z,99.9
2022-08-28T01:16:37.510Z,99.9
2022-08-28T01:18:40.477Z,99.9
2022-08-28T01:20:44.312Z,99.9
2022-08-28T01:22:48.171Z,99.9
2022-08-28T01:24:52.044Z,99.9
2022-08-28T01:26:55.937Z,99.9
2022-08-28T01:29:03.046Z,99.9
2022-08-28T01:31:06.954Z,99.9
2022-08-28T01:33:10.783Z,99.9
2022-08-28T01:36:18.206Z,99.9
2022-08-28T01:40:26.024Z,99.9
2022-08-28T01:44:36.965Z,99.9
2022-08-28T01:46:40.863Z,99.9
2022-08-28T01:48:44.691Z,99.9
2022-08-28T01:50:48.573Z,99.9
2022-08-28T01:52:52.409Z,99.9
2022-08-28T01:54:56.299Z,99.9
2022-08-28T01:57:03.418Z,99.9
2022-08-28T01:59:07.283Z,99.9
2022-08-28T02:01:11.214Z,99.9
2022-08-28T02:03:15.018Z,99.9
2022-08-28T02:05:18.901Z,99.9
2022-08-28T02:07:22.811Z,99.9
2022-08-28T02:09:26.667Z,99.9
2022-08-28T02:11:33.760Z,99.9
2022-08-28T02:13:37.631Z,99.9
2022-08-28T02:15:41.604Z,99.9
2022-08-28T02:17:45.389Z,99.9
2022-08-28T02:19:49.223Z,99.9
2022-08-28T02:21:53.094Z,99.9
2022-08-28T02:23:56.950Z,99.9
2022-08-28T02:26:04.076Z,99.9
2022-08-28T02:28:08.011Z,99.9
2022-08-28T02:32:34.693Z,99.9
2022-08-28T02:34:38.564Z,99.9
2022-08-28T02:36:42.403Z,99.9
2022-08-28T02:38:52.896Z,99.9
2022-08-28T02:40:53.438Z,99.9
2022-08-28T02:42:57.315Z,99.9
2022-08-28T02:45:01.147Z,99.9
2022-08-28T02:47:04.988Z,99.9
2022-08-28T02:49:08.850Z,99.9
2022-08-28T02:51:12.711Z,99.9
2022-08-28T02:53:19.831Z,99.9
2022-08-28T02:55:23.684Z,99.9
2022-08-28T02:57:27.536Z,99.9
2022-08-28T02:59:31.406Z,99.9
2022-08-28T03:01:35.369Z,99.9
2022-08-28T03:03:39.192Z,99.9
2022-08-28T03:05:43.001Z,99.9
2022-08-28T03:07:50.134Z,99.9
2022-08-28T03:11:57.863Z,99.9
2022-08-28T03:14:01.723Z,99.9
2022-08-28T03:16:05.578Z,99.9
2022-08-28T03:18:11.343Z,99.9
2022-08-28T03:20:13.291Z,99.9
2022-08-28T03:22:20.418Z,99.9
2022-08-28T03:24:24.289Z,99.9
2022-08-28T03:26:28.146Z,99.9
2022-08-28T03:27:31.725Z,99.9
2022-08-28T03:29:35.585Z,99.9
2022-08-28T03:31:39.446Z,99.9
2022-08-28T03:33:43.309Z,99.9
2022-08-28T03:35:50.466Z,99.9
2022-08-28T03:37:54.756Z,99.9
2022-08-28T03:39:58.277Z,99.9
2022-08-28T03:42:02.097Z,99.9
2022-08-28T03:44:05.935Z,99.9
2022-08-28T03:46:11.650Z,99.9
2022-08-28T03:48:13.890Z,99.9
2022-08-28T03:50:20.839Z,99.9
2022-08-28T04:00:40.124Z,99.9
2022-08-28T04:02:44.005Z,99.9
2022-08-28T04:04:51.203Z,99.9
2022-08-28T04:06:55.000Z,99.9
2022-08-28T04:08:59.968Z,99.9
2022-08-28T04:11:02.711Z,99.9
2022-08-28T04:13:06.588Z,99.9
2022-08-28T04:15:10.430Z,99.9
2022-08-28T04:17:14.344Z,99.9
2022-08-28T04:19:21.455Z,99.9
2022-08-28T04:21:25.304Z,99.9
2022-08-28T04:23:29.213Z,99.9
2022-08-28T04:24:32.733Z,99.9
2022-08-28T04:26:36.617Z,99.9
2022-08-28T04:28:40.524Z,99.9
2022-08-28T04:32:51.472Z,99.9
2022-08-28T04:34:55.331Z,99.9
2022-08-28T04:36:59.223Z,99.9
2022-08-28T04:39:03.094Z,99.9
2022-08-28T04:41:06.964Z,99.9
2022-08-28T04:43:10.799Z,99.9
2022-08-28T04:45:14.659Z,99.9
2022-08-28T04:47:21.821Z,99.9
2022-08-28T04:49:25.963Z,99.9
2022-08-28T04:51:29.571Z,99.9
2022-08-28T04:53:33.416Z,99.9
2022-08-28T04:55:53.368Z,99.9
2022-08-28T04:57:41.161Z,99.9
2022-08-28T04:59:45.021Z,99.9
2022-08-28T05:01:52.228Z,99.9
2022-08-28T05:05:59.911Z,99.9
2022-08-28T05:08:03.789Z,99.9
2022-08-28T05:10:07.678Z,99.9
2022-08-28T05:12:11.510Z,99.9
2022-08-28T05:14:16.279Z,99.9
2022-08-28T05:16:22.616Z,99.9
2022-08-28T05:18:26.432Z,99.9
2022-08-28T05:20:30.276Z,99.9
2022-08-28T05:21:33.814Z,99.9
2022-08-28T05:23:37.690Z,99.9
2022-08-28T05:25:41.581Z,99.9
2022-08-28T05:27:45.412Z,99.9
2022-08-28T05:29:52.540Z,99.9
2022-08-28T05:31:56.455Z,99.9
2022-08-28T05:34:00.264Z,99.9
2022-08-28T05:36:04.191Z,99.9
2022-08-28T05:38:07.997Z,99.9
2022-08-28T18:49:16.415Z,90
2022-08-28T18:51:21.247Z,89.6
2022-08-28T18:55:50.521Z,89.5
2022-08-28T18:57:52.519Z,89.5
2022-08-28T18:59:56.388Z,89.7
2022-08-28T19:02:03.758Z,90.4
2022-08-28T19:04:07.371Z,90.6
2022-08-28T19:06:11.172Z,90.9
2022-08-28T19:08:15.199Z,91.1
2022-08-28T19:10:32.837Z,91.3
2022-08-28T19:12:22.731Z,91.4
2022-08-28T19:14:26.568Z,91.6
2022-08-28T19:16:42.879Z,92
2022-08-28T19:18:37.542Z,92.2
2022-08-28T19:20:41.371Z,92.3
2022-08-28T19:24:49.084Z,92.7
2022-08-28T19:26:52.935Z,92.9
2022-08-28T19:37:15.456Z,94.3
2022-08-28T19:41:23.129Z,94.9
2022-08-28T19:43:31.128Z,95.3
2022-08-28T19:45:34.153Z,96.1
2022-08-28T19:47:37.946Z,96.5
2022-08-28T19:49:41.806Z,96.8
2022-08-28T19:50:45.387Z,97.1
2022-08-28T19:54:53.085Z,97.6
2022-08-28T19:56:56.954Z,97.9
2022-08-28T19:59:04.079Z,98.5
2022-08-28T20:01:08.026Z,98.8
2022-08-28T20:03:11.761Z,99.1
2022-08-28T20:05:15.646Z,99.3
2022-08-28T20:07:19.469Z,99.5
2022-08-28T20:09:23.321Z,99.6
2022-08-28T20:11:30.355Z,99.7
2022-08-28T20:13:34.292Z,99.9
2022-08-28T20:15:38.232Z,99.9
2022-08-28T20:17:43.895Z,99.9
2022-08-28T20:19:45.873Z,99.9
2022-08-28T20:21:49.742Z,99.9
2022-08-28T20:23:53.638Z,99.9
2022-08-28T20:25:57.471Z,99.9
2022-08-28T20:28:04.678Z,99.9
2022-08-28T20:30:10.775Z,99.9
2022-08-28T20:32:12.311Z,99.9
2022-08-28T20:34:16.162Z,99.9
2022-08-28T20:36:21.371Z,99.9
2022-08-28T20:38:23.896Z,99.9
2022-08-28T20:40:27.818Z,99.9
2022-08-28T20:42:35.813Z,99.9
2022-08-28T20:44:38.766Z,99.9
2022-08-28T20:46:42.700Z,99.9
2022-08-28T20:47:46.149Z,99.9
2022-08-28T20:49:50.029Z,99.9
2022-08-28T20:51:53.868Z,99.9
2022-08-28T20:53:57.714Z,99.9
2022-08-28T20:56:04.814Z,99.9
2022-08-28T20:58:08.729Z,99.9
2022-08-28T21:00:12.559Z,99.9
2022-08-28T21:02:25.464Z,99.9
2022-08-28T21:04:20.249Z,99.9
2022-08-28T21:06:24.108Z,99.9
2022-08-28T21:10:35.102Z,99.9
2022-08-28T21:12:39.012Z,99.9
2022-08-28T21:14:42.808Z,99.9
2022-08-28T21:16:46.706Z,99.9
2022-08-28T21:19:14.093Z,99.9
2022-08-28T21:20:54.376Z,99.9
2022-08-28T21:22:58.227Z,99.9
2022-08-28T21:25:05.356Z,99.9
2022-08-28T21:27:09.591Z,99.9
2022-08-28T21:29:13.024Z,99.9
2022-08-28T21:31:16.929Z,99.9
2022-08-28T21:33:20.726Z,99.9
2022-08-28T21:35:24.576Z,99.9
2022-08-28T21:37:28.451Z,99.9
2022-08-28T21:43:43.240Z,99.9
2022-08-28T21:44:51.972Z,99.9
2022-08-28T21:46:50.675Z,99.9
2022-08-28T21:48:54.507Z,99.9
2022-08-28T21:53:05.466Z,99.9
2022-08-28T21:55:09.341Z,99.9
2022-08-28T22:07:35.793Z,99.9
2022-08-28T22:09:39.614Z,99.9
2022-08-28T22:11:43.503Z,99.9
2022-08-28T22:13:47.356Z,99.9
2022-08-28T22:15:51.219Z,99.9
2022-08-28T22:17:55.069Z,99.9
2022-08-28T22:19:58.956Z,99.9
2022-08-28T22:22:06.066Z,99.9
2022-08-28T22:24:09.934Z,99.9
2022-08-28T22:26:13.756Z,99.9
2022-08-28T22:28:17.628Z,99.9
2022-08-28T22:30:21.490Z,99.9
2022-08-28T22:32:25.431Z,99.9
2022-08-28T22:34:29.219Z,99.9
2022-08-28T22:36:36.372Z,99.9
2022-08-28T22:38:40.249Z,99.9
2022-08-28T22:40:44.130Z,99.9
2022-08-28T22:43:02.736Z,99.9
2022-08-28T22:45:06.578Z,99.9
2022-08-28T22:49:17.565Z,99.9
2022-08-28T22:51:21.429Z,99.9
2022-08-28T22:55:29.145Z,99.9
2022-08-28T22:57:32.996Z,99.9
2022-08-28T22:59:36.872Z,99.9
2022-08-28T23:03:47.863Z,99.9
2022-08-28T23:05:51.763Z,99.9
2022-08-28T23:07:55.576Z,99.9
2022-08-28T23:09:59.464Z,99.9
2022-08-28T23:12:03.319Z,99.9
2022-08-28T23:14:07.200Z,99.9
2022-08-28T23:16:11.093Z,99.9
2022-08-28T23:18:18.217Z,99.9
2022-08-28T23:20:22.024Z,99.9
2022-08-28T23:22:25.908Z,99.9
2022-08-28T23:24:29.759Z,99.9
2022-08-28T23:26:33.653Z,99.9
2022-08-28T23:28:37.485Z,99.9
2022-08-28T23:30:48.219Z,99.9
2022-08-28T23:32:48.523Z,99.9
2022-08-28T23:34:52.378Z,99.9
2022-08-28T23:36:56.277Z,99.9
2022-08-28T23:37:59.829Z,99.9
2022-08-28T23:40:03.752Z,99.9
2022-08-28T23:42:07.537Z,99.9
2022-08-28T23:44:11.409Z,99.9
2022-08-28T23:48:22.398Z,99.9
2022-08-28T23:50:26.248Z,99.9
2022-08-28T23:52:30.121Z,99.9
2022-08-28T23:54:33.982Z,99.9
2022-08-28T23:56:37.845Z,99.9
2022-08-28T23:58:43.120Z,99.9
